Adrian, Georgia
Current Conditions -  °F | °C
As of 6:15 PM on Thursday 20 Nov 2014 (Local Time) from KSBO Reporting Station
Clear Clear  
Wind Chill: 59°   Ceiling: Unl
Heat Index: 59°   Visibility: 10mi
Dew Point: 43°   Wind: 3mph
Humidity: 55%   Direction: 230°SW
Pressure: 30.2"   Gusts: NA
Location:  32.53°N, 82.59°W
Report Text: KSBO 202315Z AUTO 23003KT 10SM CLR 15/06 A3020 RMK AO2
Loading
Personal Weather Stations






























Interactive Weather Map New forecast layout! Learn more

10-Day Weather Forecast

Advertisements
Track Severe Weather on mobile